createdAt,value
2019-01-04T00:01:43.780Z,97.39
2019-01-04T00:04:50.765Z,97.53
2019-01-04T00:07:57.667Z,97.34
2019-01-04T00:11:04.594Z,96.46
2019-01-04T00:14:11.591Z,97.10
2019-01-04T00:17:18.582Z,97.41
2019-01-04T00:20:25.482Z,98.20
2019-01-04T00:23:32.537Z,98.47
2019-01-04T00:26:39.662Z,98.66
2019-01-04T00:29:46.379Z,98.15
2019-01-04T00:32:53.033Z,98.33
2019-01-04T00:36:00.069Z,98.27
2019-01-04T00:39:07.895Z,97.72
2019-01-04T00:42:14.847Z,97.87
2019-01-04T00:45:21.815Z,97.03
2019-01-04T00:48:29.254Z,96.75
2019-01-04T00:51:38.736Z,97.20
2019-01-04T00:54:45.650Z,96.65
2019-01-04T00:58:49.507Z,97.09
2019-01-04T01:02:36.521Z,96.70
2019-01-04T01:06:50.275Z,96.39
2019-01-04T01:10:36.397Z,96.61
2019-01-04T01:14:45.229Z,96.58
2019-01-04T01:18:43.595Z,95.68
2019-01-04T01:22:48.909Z,95.52
2019-01-04T01:26:41.833Z,95.20
2019-01-04T01:31:00.687Z,94.74
2019-01-04T01:35:05.691Z,94.58
2019-01-04T01:39:19.341Z,94.65
2019-01-04T01:43:40.580Z,95.08
2019-01-04T01:47:34.489Z,94.80
2019-01-04T01:51:27.184Z,95.31
2019-01-04T01:54:34.004Z,95.55
2019-01-04T01:57:41.139Z,95.67
2019-01-04T02:00:49.762Z,95.03
2019-01-04T02:03:56.773Z,94.89
2019-01-04T02:07:03.627Z,95.83
2019-01-04T02:10:11.033Z,95.97
2019-01-04T02:13:17.721Z,96.14
2019-01-04T02:16:24.707Z,96.53
2019-01-04T02:19:31.580Z,96.31
2019-01-04T02:22:38.755Z,96.38
2019-01-04T02:25:45.706Z,96.82
2019-01-04T02:28:53.057Z,96.57
2019-01-04T02:31:59.744Z,96.25
2019-01-04T02:35:06.987Z,96.03
2019-01-04T02:38:14.048Z,96.31
2019-01-04T02:41:22.099Z,96.27
2019-01-04T02:44:29.065Z,96.75
2019-01-04T02:47:36.354Z,97.21
2019-01-04T02:50:44.802Z,97.25
2019-01-04T02:53:51.972Z,97.69
2019-01-04T02:56:58.997Z,97.84
2019-01-04T03:00:06.690Z,98.04
2019-01-04T03:03:13.648Z,97.57
2019-01-04T03:06:20.595Z,98.13
2019-01-04T03:09:28.170Z,98.57
2019-01-04T03:12:35.111Z,98.14
2019-01-04T03:15:42.035Z,98.47
2019-01-04T03:18:50.682Z,98.70
2019-01-04T03:21:57.893Z,99.04
2019-01-04T03:25:04.610Z,99.13
2019-01-04T03:28:11.325Z,99.19
2019-01-04T03:31:18.353Z,98.77
2019-01-04T03:34:25.306Z,99.49
2019-01-04T03:37:32.334Z,99.75
2019-01-04T03:40:39.343Z,99.42
2019-01-04T03:43:46.512Z,100.00
2019-01-04T03:46:53.725Z,100.00
2019-01-04T03:50:00.810Z,99.84
2019-01-04T03:53:07.704Z,99.92
2019-01-04T03:56:14.932Z,100.00
2019-01-04T03:59:21.652Z,100.00
2019-01-04T04:02:28.378Z,99.99
2019-01-04T04:05:35.101Z,100.00
2019-01-04T04:08:41.847Z,100.00
2019-01-04T04:11:50.352Z,100.00
2019-01-04T04:14:57.419Z,100.00
2019-01-04T04:18:04.324Z,100.00
2019-01-04T04:21:11.273Z,100.00
2019-01-04T04:24:18.499Z,100.00
2019-01-04T04:27:25.213Z,100.00
2019-01-04T04:30:31.922Z,100.00
2019-01-04T04:33:38.893Z,99.99
2019-01-04T04:36:47.777Z,100.00
2019-01-04T04:39:54.772Z,100.00
2019-01-04T04:43:00.927Z,100.00
2019-01-04T04:46:07.538Z,100.00
2019-01-04T04:49:13.896Z,100.00
2019-01-04T04:52:20.230Z,100.00
2019-01-04T04:55:26.332Z,100.00
2019-01-04T04:58:32.728Z,100.00
2019-01-04T05:01:38.802Z,99.92
2019-01-04T05:04:45.174Z,99.26
2019-01-04T05:07:51.289Z,99.45
2019-01-04T05:10:57.629Z,99.91
2019-01-04T05:14:03.705Z,100.00
2019-01-04T05:17:11.065Z,100.00
2019-01-04T05:20:17.162Z,100.00
2019-01-04T05:23:23.547Z,100.00
2019-01-04T05:26:30.200Z,100.00
2019-01-04T05:29:37.103Z,100.00
2019-01-04T05:32:46.442Z,100.00
2019-01-04T05:35:54.298Z,100.00
2019-01-04T05:39:01.270Z,100.00
2019-01-04T05:42:09.534Z,100.00
2019-01-04T05:45:16.520Z,100.00
2019-01-04T05:48:23.837Z,100.00
2019-01-04T05:51:31.065Z,100.00
2019-01-04T05:54:38.649Z,100.00
2019-01-04T05:57:45.653Z,100.00
2019-01-04T06:00:52.415Z,100.00
2019-01-04T06:03:59.335Z,100.00
2019-01-04T06:07:06.254Z,100.00
2019-01-04T06:10:13.106Z,100.00
2019-01-04T06:13:19.818Z,100.00
2019-01-04T06:16:26.532Z,100.00
2019-01-04T06:19:33.747Z,100.00
2019-01-04T06:22:41.513Z,100.00
2019-01-04T06:25:48.272Z,100.00
2019-01-04T06:28:54.935Z,100.00
2019-01-04T06:32:01.688Z,100.00
2019-01-04T06:35:08.370Z,100.00
2019-01-04T06:38:15.333Z,100.00
2019-01-04T06:41:22.181Z,100.00
2019-01-04T06:44:29.083Z,100.00
2019-01-04T06:47:37.387Z,100.00
2019-01-04T06:50:45.067Z,100.00
2019-01-04T06:53:53.034Z,99.74
2019-01-04T06:57:00.054Z,100.00
2019-01-04T07:00:07.026Z,100.00
2019-01-04T07:03:16.054Z,99.71
2019-01-04T07:06:25.719Z,99.94
2019-01-04T07:09:32.613Z,100.00
2019-01-04T07:12:39.485Z,100.00
2019-01-04T07:15:46.400Z,100.00
2019-01-04T07:18:53.401Z,100.00
2019-01-04T07:22:00.388Z,100.00
2019-01-04T07:25:07.393Z,100.00
2019-01-04T07:28:14.298Z,100.00
2019-01-04T07:31:20.981Z,99.91
2019-01-04T07:34:28.189Z,99.92
2019-01-04T07:37:35.051Z,99.65
2019-01-04T07:40:42.120Z,99.56
2019-01-04T07:43:49.340Z,99.58
2019-01-04T07:46:56.446Z,99.70
2019-01-04T07:50:04.492Z,99.51
2019-01-04T07:53:11.829Z,99.41
2019-01-04T07:56:19.081Z,99.24
2019-01-04T07:59:26.097Z,99.09
2019-01-04T08:02:47.289Z,98.96
2019-01-04T08:05:58.168Z,98.33
2019-01-04T08:09:07.207Z,97.94
2019-01-04T08:12:13.942Z,96.91
2019-01-04T08:15:20.732Z,96.51
2019-01-04T08:18:27.702Z,96.27
2019-01-04T08:21:34.523Z,95.70
2019-01-04T08:24:41.764Z,95.28
2019-01-04T08:27:48.457Z,95.05
2019-01-04T08:30:55.208Z,95.29
2019-01-04T08:34:04.629Z,94.92
2019-01-04T08:37:11.642Z,93.74
2019-01-04T08:40:19.955Z,93.74
2019-01-04T08:43:28.459Z,93.24
2019-01-04T08:46:35.277Z,93.46
2019-01-04T08:49:42.512Z,93.16
2019-01-04T08:52:49.225Z,93.29
2019-01-04T08:55:56.256Z,93.06
2019-01-04T08:59:03.107Z,92.40
2019-01-04T09:02:11.925Z,92.45
2019-01-04T09:05:19.438Z,92.39
2019-01-04T09:08:26.312Z,91.79
2019-01-04T09:11:33.193Z,91.69
2019-01-04T09:14:40.319Z,92.07
2019-01-04T09:17:47.042Z,91.55
2019-01-04T09:20:53.761Z,91.22
2019-01-04T09:24:01.191Z,91.74
2019-01-04T09:27:08.183Z,92.63
2019-01-04T09:30:16.430Z,92.83
2019-01-04T09:33:23.879Z,92.86
2019-01-04T09:36:30.676Z,92.68
2019-01-04T09:39:37.697Z,92.63
2019-01-04T09:42:49.192Z,92.86
2019-01-04T09:45:56.403Z,92.73
2019-01-04T09:49:03.332Z,91.95
2019-01-04T09:52:10.057Z,91.80
2019-01-04T09:55:16.727Z,91.19
2019-01-04T09:58:24.764Z,91.06
2019-01-04T10:01:31.804Z,91.10
2019-01-04T10:04:38.494Z,90.88
2019-01-04T10:07:45.634Z,90.77
2019-01-04T10:10:52.653Z,90.40
2019-01-04T10:13:59.445Z,90.20
2019-01-04T10:17:06.412Z,90.00
2019-01-04T10:20:13.782Z,90.23
2019-01-04T10:23:20.679Z,90.32
2019-01-04T10:26:27.550Z,89.95
2019-01-04T10:29:34.735Z,90.02
2019-01-04T10:32:42.157Z,90.20
2019-01-04T10:35:48.853Z,89.72
2019-01-04T10:38:55.998Z,89.63
2019-01-04T10:42:05.874Z,90.21
2019-01-04T10:45:12.775Z,89.88
2019-01-04T10:48:19.804Z,89.67
2019-01-04T10:51:26.493Z,89.14
2019-01-04T10:54:35.430Z,89.55
2019-01-04T10:57:42.821Z,89.52
2019-01-04T11:00:50.144Z,90.13
2019-01-04T11:03:56.818Z,90.32
2019-01-04T11:07:03.640Z,89.91
2019-01-04T11:10:11.741Z,89.85
2019-01-04T11:13:18.654Z,90.21
2019-01-04T11:16:26.116Z,89.87
2019-01-04T11:19:33.048Z,90.12
2019-01-04T11:23:01.661Z,90.67
2019-01-04T11:26:37.682Z,90.69
2019-01-04T11:30:24.902Z,90.68
2019-01-04T11:34:26.926Z,90.76
2019-01-04T11:37:59.398Z,91.03
2019-01-04T11:41:35.906Z,90.79
2019-01-04T11:45:21.369Z,91.27
2019-01-04T11:49:09.954Z,91.38
2019-01-04T11:52:31.288Z,92.38
2019-01-04T11:55:39.141Z,92.60
2019-01-04T11:58:45.853Z,92.73
2019-01-04T12:01:53.865Z,92.74
2019-01-04T12:05:03.582Z,92.38
2019-01-04T12:08:10.497Z,91.98
2019-01-04T12:11:17.416Z,92.32
2019-01-04T12:14:25.739Z,92.49
2019-01-04T12:17:32.583Z,92.60
2019-01-04T12:20:45.361Z,92.91
2019-01-04T12:23:49.087Z,93.01
2019-01-04T12:26:56.010Z,92.56
2019-01-04T12:30:02.673Z,92.54
2019-01-04T12:33:10.464Z,92.07
2019-01-04T12:36:17.763Z,91.70
2019-01-04T12:39:24.679Z,91.62
2019-01-04T12:42:31.652Z,91.12
2019-01-04T12:45:39.175Z,91.83
2019-01-04T12:48:46.062Z,92.45
2019-01-04T12:51:53.434Z,92.10
2019-01-04T12:55:00.169Z,91.50
2019-01-04T12:58:07.118Z,91.53
2019-01-04T13:01:14.028Z,91.45
2019-01-04T13:04:22.160Z,91.55
2019-01-04T13:07:29.279Z,91.60
2019-01-04T13:10:36.191Z,92.01
2019-01-04T13:13:43.076Z,92.44
2019-01-04T13:16:50.291Z,93.18
2019-01-04T13:19:56.980Z,93.22
2019-01-04T13:23:03.743Z,93.47
2019-01-04T13:26:10.433Z,93.28
2019-01-04T13:29:17.394Z,93.21
2019-01-04T13:32:24.293Z,92.77
2019-01-04T13:35:31.235Z,92.79
2019-01-04T13:38:38.822Z,92.50
2019-01-04T13:41:45.740Z,92.44
2019-01-04T13:44:52.925Z,92.00
2019-01-04T13:47:59.891Z,92.41
2019-01-04T13:51:06.772Z,92.15
2019-01-04T13:54:13.793Z,92.24
2019-01-04T13:57:20.953Z,92.10
2019-01-04T14:00:27.755Z,92.24
2019-01-04T14:03:34.667Z,92.14
2019-01-04T14:06:41.949Z,92.08
2019-01-04T14:09:48.927Z,91.96
2019-01-04T14:12:55.670Z,91.57
2019-01-04T14:16:02.616Z,91.94
2019-01-04T14:19:09.604Z,91.85
2019-01-04T14:22:16.974Z,92.08
2019-01-04T14:25:24.062Z,92.65
2019-01-04T14:28:30.973Z,92.77
2019-01-04T14:31:37.955Z,93.05
2019-01-04T14:34:44.974Z,92.80
2019-01-04T14:37:51.754Z,92.81
2019-01-04T14:40:58.793Z,91.99
2019-01-04T14:44:05.732Z,92.20
2019-01-04T14:47:12.921Z,92.36
2019-01-04T14:50:19.924Z,92.24
2019-01-04T14:53:26.842Z,92.17
2019-01-04T14:56:35.832Z,92.61
2019-01-04T14:59:42.879Z,92.67
2019-01-04T15:02:50.196Z,92.96
2019-01-04T15:05:57.476Z,92.92
2019-01-04T15:09:05.918Z,93.41
2019-01-04T15:12:12.889Z,94.43
2019-01-04T15:15:19.632Z,94.51
2019-01-04T15:18:26.360Z,94.81
2019-01-04T15:21:33.106Z,95.30
2019-01-04T15:24:39.795Z,95.27
2019-01-04T15:27:47.143Z,95.42
2019-01-04T15:30:54.335Z,95.78
2019-01-04T15:34:01.076Z,95.85
2019-01-04T15:37:07.784Z,95.37
2019-01-04T15:40:14.769Z,96.03
2019-01-04T15:43:21.684Z,96.52
2019-01-04T15:46:31.318Z,96.89
2019-01-04T15:49:39.290Z,97.05
2019-01-04T15:52:46.517Z,96.96
2019-01-04T15:55:53.246Z,97.07
2019-01-04T15:59:00.008Z,97.34
2019-01-04T16:02:09.130Z,97.58
2019-01-04T16:05:16.064Z,97.80
2019-01-04T16:08:23.174Z,97.94
2019-01-04T16:11:30.616Z,97.82
2019-01-04T16:14:37.618Z,98.08
2019-01-04T16:17:46.096Z,98.31
2019-01-04T16:20:53.426Z,98.25
2019-01-04T16:24:00.353Z,98.35
2019-01-04T16:27:07.509Z,98.23
2019-01-04T16:30:14.497Z,97.95
2019-01-04T16:33:21.155Z,98.01
2019-01-04T16:36:28.144Z,98.10
2019-01-04T16:39:35.048Z,97.88
2019-01-04T16:42:42.005Z,98.08
2019-01-04T16:45:48.739Z,97.88
2019-01-04T16:48:58.389Z,97.86
2019-01-04T16:52:05.263Z,98.33
2019-01-04T16:55:12.454Z,98.36
2019-01-04T16:58:19.174Z,98.17
2019-01-04T17:01:25.883Z,98.26
2019-01-04T17:04:32.578Z,98.55
2019-01-04T17:07:45.342Z,98.54
2019-01-04T17:10:52.042Z,98.72
2019-01-04T17:14:02.161Z,98.83
2019-01-04T17:17:09.056Z,99.17
2019-01-04T17:20:16.281Z,99.23
2019-01-04T17:23:22.985Z,99.51
2019-01-04T17:26:30.117Z,99.65
2019-01-04T17:29:36.996Z,99.63
2019-01-04T17:32:44.214Z,99.98
2019-01-04T17:35:51.178Z,99.99
2019-01-04T17:38:58.368Z,99.97
2019-01-04T17:42:05.209Z,99.99
2019-01-04T17:45:12.237Z,100.00
2019-01-04T17:48:20.401Z,100.00
2019-01-04T17:51:27.308Z,100.00
2019-01-04T17:54:34.078Z,100.00
2019-01-04T17:57:40.801Z,100.00
2019-01-04T18:00:47.514Z,100.00
2019-01-04T18:04:01.003Z,100.00
2019-01-04T18:07:09.036Z,100.00
2019-01-04T18:10:16.106Z,100.00
2019-01-04T18:13:23.089Z,100.00
2019-01-04T18:16:30.912Z,100.00
2019-01-04T18:19:37.838Z,100.00
2019-01-04T18:22:44.782Z,100.00
2019-01-04T18:25:51.454Z,100.00
2019-01-04T18:28:58.984Z,100.00
2019-01-04T18:32:07.101Z,100.00
2019-01-04T18:35:14.113Z,100.00
2019-01-04T18:38:21.063Z,100.00
2019-01-04T18:41:28.199Z,100.00
2019-01-04T18:44:35.329Z,100.00
2019-01-04T18:47:42.359Z,100.00
2019-01-04T18:50:50.881Z,100.00
2019-01-04T18:53:57.802Z,100.00
2019-01-04T18:57:05.181Z,100.00
2019-01-04T19:00:13.417Z,100.00
2019-01-04T19:03:20.320Z,100.00
2019-01-04T19:06:31.100Z,100.00
2019-01-04T19:09:36.298Z,100.00
2019-01-04T19:12:43.062Z,100.00
2019-01-04T19:15:49.772Z,100.00
2019-01-04T19:18:58.304Z,100.00
2019-01-04T19:22:05.267Z,100.00
2019-01-04T19:25:11.990Z,100.00
2019-01-04T19:28:20.583Z,100.00
2019-01-04T19:31:27.304Z,100.00
2019-01-04T19:34:34.251Z,100.00
2019-01-04T19:37:41.183Z,100.00
2019-01-04T19:40:48.062Z,100.00
2019-01-04T19:43:54.973Z,100.00
2019-01-04T19:47:03.217Z,100.00
2019-01-04T19:50:24.561Z,100.00
2019-01-04T19:53:33.543Z,100.00
2019-01-04T19:56:40.655Z,100.00
2019-01-04T19:59:47.810Z,100.00
2019-01-04T20:02:54.535Z,100.00
2019-01-04T20:07:19.203Z,100.00
2019-01-04T20:11:41.521Z,100.00
2019-01-04T20:15:30.355Z,100.00
2019-01-04T20:19:01.703Z,100.00
2019-01-04T20:22:26.501Z,100.00
2019-01-04T20:26:04.832Z,100.00
2019-01-04T20:29:30.587Z,100.00
2019-01-04T20:32:49.502Z,100.00
2019-01-04T20:36:13.907Z,100.00
2019-01-04T20:39:45.740Z,100.00
2019-01-04T20:43:13.247Z,100.00
2019-01-04T20:46:39.156Z,100.00
2019-01-04T20:50:03.842Z,100.00
2019-01-04T20:53:46.173Z,100.00
2019-01-04T20:57:13.342Z,100.00
2019-01-04T21:00:37.952Z,100.00
2019-01-04T21:04:19.092Z,100.00
2019-01-04T21:07:43.756Z,100.00
2019-01-04T21:11:12.587Z,100.00
2019-01-04T21:14:41.429Z,100.00
2019-01-04T21:18:12.487Z,100.00
2019-01-04T21:21:37.480Z,100.00
2019-01-04T21:25:09.515Z,100.00
2019-01-04T21:28:48.493Z,100.00
2019-01-04T21:32:12.929Z,100.00
2019-01-04T21:35:56.832Z,100.00
2019-01-04T21:39:28.543Z,100.00
2019-01-04T21:42:57.240Z,100.00
2019-01-04T21:46:32.222Z,100.00
2019-01-04T21:49:53.710Z,100.00
2019-01-04T21:53:22.291Z,100.00
2019-01-04T21:56:53.954Z,100.00
2019-01-04T22:00:17.655Z,100.00
2019-01-04T22:03:52.750Z,100.00
2019-01-04T22:07:17.482Z,100.00
2019-01-04T22:10:49.565Z,100.00
2019-01-04T22:14:14.241Z,100.00
2019-01-04T22:17:58.527Z,100.00
2019-01-04T22:21:31.744Z,100.00
2019-01-04T22:25:13.814Z,100.00
2019-01-04T22:28:40.063Z,100.00
2019-01-04T22:32:18.112Z,100.00
2019-01-04T22:35:42.396Z,100.00
2019-01-04T22:39:17.177Z,100.00
2019-01-04T22:42:41.998Z,100.00
2019-01-04T22:46:07.876Z,100.00
2019-01-04T22:49:32.504Z,100.00
2019-01-04T22:52:56.926Z,100.00
2019-01-04T22:56:21.593Z,100.00
2019-01-04T23:00:00.157Z,100.00
2019-01-04T23:03:24.648Z,100.00
2019-01-04T23:06:49.149Z,100.00
2019-01-04T23:10:30.130Z,100.00
2019-01-04T23:13:52.213Z,100.00
2019-01-04T23:17:30.182Z,100.00
2019-01-04T23:20:56.203Z,100.00
2019-01-04T23:24:30.585Z,100.00
2019-01-04T23:28:05.736Z,100.00
2019-01-04T23:31:51.182Z,100.00
2019-01-04T23:35:15.874Z,100.00
2019-01-04T23:38:30.444Z,100.00
2019-01-04T23:41:55.221Z,100.00
2019-01-04T23:45:29.288Z,100.00
2019-01-04T23:48:54.278Z,100.00
2019-01-04T23:52:19.126Z,100.00
2019-01-04T23:55:37.474Z,100.00
2019-01-04T23:59:04.588Z,100.00
